sensor_id;sensor_type;location;lat;lon;timestamp;temperature;humidity
51863;DHT22;37900;52.996;6.278;2023-03-12T00:01:25;15.60;71.60
51863;DHT22;37900;52.996;6.278;2023-03-12T00:03:52;15.60;71.50
51863;DHT22;37900;52.996;6.278;2023-03-12T00:06:19;15.60;71.40
51863;DHT22;37900;52.996;6.278;2023-03-12T00:08:46;15.60;71.40
51863;DHT22;37900;52.996;6.278;2023-03-12T00:11:14;15.60;71.30
51863;DHT22;37900;52.996;6.278;2023-03-12T00:13:41;15.60;71.30
51863;DHT22;37900;52.996;6.278;2023-03-12T00:16:14;15.60;71.30
51863;DHT22;37900;52.996;6.278;2023-03-12T00:18:40;15.60;71.20
51863;DHT22;37900;52.996;6.278;2023-03-12T00:21:07;15.60;71.20
51863;DHT22;37900;52.996;6.278;2023-03-12T00:23:33;15.60;71.20
51863;DHT22;37900;52.996;6.278;2023-03-12T00:26:09;15.60;71.10
51863;DHT22;37900;52.996;6.278;2023-03-12T00:28:35;15.50;71.00
51863;DHT22;37900;52.996;6.278;2023-03-12T00:31:02;15.50;70.90
51863;DHT22;37900;52.996;6.278;2023-03-12T00:33:28;15.50;70.80
51863;DHT22;37900;52.996;6.278;2023-03-12T00:35:55;15.50;70.80
51863;DHT22;37900;52.996;6.278;2023-03-12T00:38:21;15.50;70.80
51863;DHT22;37900;52.996;6.278;2023-03-12T00:40:47;15.40;70.70
51863;DHT22;37900;52.996;6.278;2023-03-12T00:43:13;15.40;70.60
51863;DHT22;37900;52.996;6.278;2023-03-12T00:45:39;15.40;70.50
51863;DHT22;37900;52.996;6.278;2023-03-12T00:48:05;15.40;70.40
51863;DHT22;37900;52.996;6.278;2023-03-12T00:50:31;15.40;70.30
51863;DHT22;37900;52.996;6.278;2023-03-12T00:52:57;15.50;70.30
51863;DHT22;37900;52.996;6.278;2023-03-12T00:55:22;15.50;70.20
51863;DHT22;37900;52.996;6.278;2023-03-12T00:57:48;15.50;70.30
51863;DHT22;37900;52.996;6.278;2023-03-12T01:00:14;15.50;70.30
51863;DHT22;37900;52.996;6.278;2023-03-12T01:02:40;15.50;70.30
51863;DHT22;37900;52.996;6.278;2023-03-12T01:05:07;15.50;70.30
51863;DHT22;37900;52.996;6.278;2023-03-12T01:07:34;15.50;70.30
51863;DHT22;37900;52.996;6.278;2023-03-12T01:10:00;15.50;70.20
51863;DHT22;37900;52.996;6.278;2023-03-12T01:12:26;15.40;70.10
51863;DHT22;37900;52.996;6.278;2023-03-12T01:14:52;15.40;70.20
51863;DHT22;37900;52.996;6.278;2023-03-12T01:17:18;15.40;70.10
51863;DHT22;37900;52.996;6.278;2023-03-12T01:19:43;15.40;70.00
51863;DHT22;37900;52.996;6.278;2023-03-12T01:22:09;15.40;70.00
51863;DHT22;37900;52.996;6.278;2023-03-12T01:24:35;15.40;70.00
51863;DHT22;37900;52.996;6.278;2023-03-12T01:27:01;15.40;69.90
51863;DHT22;37900;52.996;6.278;2023-03-12T01:29:26;15.40;69.70
51863;DHT22;37900;52.996;6.278;2023-03-12T01:31:52;15.30;69.60
51863;DHT22;37900;52.996;6.278;2023-03-12T01:34:18;15.40;69.60
51863;DHT22;37900;52.996;6.278;2023-03-12T01:36:44;15.40;69.60
51863;DHT22;37900;52.996;6.278;2023-03-12T01:39:12;15.40;69.60
51863;DHT22;37900;52.996;6.278;2023-03-12T01:41:38;15.50;69.70
51863;DHT22;37900;52.996;6.278;2023-03-12T01:44:06;15.40;69.60
51863;DHT22;37900;52.996;6.278;2023-03-12T01:46:37;15.40;69.70
51863;DHT22;37900;52.996;6.278;2023-03-12T01:49:10;15.40;69.70
51863;DHT22;37900;52.996;6.278;2023-03-12T01:51:38;15.40;69.70
51863;DHT22;37900;52.996;6.278;2023-03-12T01:54:34;15.40;69.60
51863;DHT22;37900;52.996;6.278;2023-03-12T01:57:07;15.40;69.50
51863;DHT22;37900;52.996;6.278;2023-03-12T01:59:52;15.30;69.50
51863;DHT22;37900;52.996;6.278;2023-03-12T02:02:19;15.30;69.40
51863;DHT22;37900;52.996;6.278;2023-03-12T02:04:55;15.30;69.40
51863;DHT22;37900;52.996;6.278;2023-03-12T02:07:23;15.30;69.40
51863;DHT22;37900;52.996;6.278;2023-03-12T02:09:49;15.30;69.30
51863;DHT22;37900;52.996;6.278;2023-03-12T02:12:16;15.30;69.20
51863;DHT22;37900;52.996;6.278;2023-03-12T02:14:42;15.30;69.20
51863;DHT22;37900;52.996;6.278;2023-03-12T02:17:09;15.30;69.00
51863;DHT22;37900;52.996;6.278;2023-03-12T02:22:02;15.30;69.00
51863;DHT22;37900;52.996;6.278;2023-03-12T02:24:59;15.30;69.60
51863;DHT22;37900;52.996;6.278;2023-03-12T02:27:33;15.30;69.00
51863;DHT22;37900;52.996;6.278;2023-03-12T02:30:02;15.30;69.10
51863;DHT22;37900;52.996;6.278;2023-03-12T02:32:33;15.30;69.10
51863;DHT22;37900;52.996;6.278;2023-03-12T02:35:01;15.30;69.10
51863;DHT22;37900;52.996;6.278;2023-03-12T02:37:27;15.30;69.10
51863;DHT22;37900;52.996;6.278;2023-03-12T02:40:04;15.30;69.00
51863;DHT22;37900;52.996;6.278;2023-03-12T02:42:34;15.30;68.90
51863;DHT22;37900;52.996;6.278;2023-03-12T02:45:00;15.30;69.00
51863;DHT22;37900;52.996;6.278;2023-03-12T02:47:27;15.20;68.80
51863;DHT22;37900;52.996;6.278;2023-03-12T02:49:53;15.20;68.80
51863;DHT22;37900;52.996;6.278;2023-03-12T02:52:18;15.20;68.70
51863;DHT22;37900;52.996;6.278;2023-03-12T02:54:44;15.20;68.60
51863;DHT22;37900;52.996;6.278;2023-03-12T02:57:10;15.20;68.60
51863;DHT22;37900;52.996;6.278;2023-03-12T02:59:35;15.30;68.50
51863;DHT22;37900;52.996;6.278;2023-03-12T03:02:01;15.30;68.50
51863;DHT22;37900;52.996;6.278;2023-03-12T03:04:29;15.30;68.50
51863;DHT22;37900;52.996;6.278;2023-03-12T03:06:55;15.30;68.50
51863;DHT22;37900;52.996;6.278;2023-03-12T03:09:21;15.30;68.50
51863;DHT22;37900;52.996;6.278;2023-03-12T03:11:48;15.30;68.60
51863;DHT22;37900;52.996;6.278;2023-03-12T03:14:14;15.30;68.60
51863;DHT22;37900;52.996;6.278;2023-03-12T03:16:39;15.20;68.60
51863;DHT22;37900;52.996;6.278;2023-03-12T03:19:05;15.30;68.60
51863;DHT22;37900;52.996;6.278;2023-03-12T03:21:31;15.20;68.60
51863;DHT22;37900;52.996;6.278;2023-03-12T03:23:57;15.20;68.50
51863;DHT22;37900;52.996;6.278;2023-03-12T03:26:23;15.20;68.50
51863;DHT22;37900;52.996;6.278;2023-03-12T03:28:50;15.20;68.40
51863;DHT22;37900;52.996;6.278;2023-03-12T03:31:16;15.20;68.30
51863;DHT22;37900;52.996;6.278;2023-03-12T03:33:42;15.20;68.20
51863;DHT22;37900;52.996;6.278;2023-03-12T03:36:09;15.20;68.10
51863;DHT22;37900;52.996;6.278;2023-03-12T03:38:35;15.20;68.10
51863;DHT22;37900;52.996;6.278;2023-03-12T03:41:02;15.20;68.00
51863;DHT22;37900;52.996;6.278;2023-03-12T03:43:28;15.20;68.10
51863;DHT22;37900;52.996;6.278;2023-03-12T03:45:58;15.20;68.10
51863;DHT22;37900;52.996;6.278;2023-03-12T03:48:24;15.20;68.10
51863;DHT22;37900;52.996;6.278;2023-03-12T03:50:50;15.20;68.20
51863;DHT22;37900;52.996;6.278;2023-03-12T03:53:16;15.20;68.30
51863;DHT22;37900;52.996;6.278;2023-03-12T03:55:44;15.20;68.30
51863;DHT22;37900;52.996;6.278;2023-03-12T03:58:10;15.20;68.10
51863;DHT22;37900;52.996;6.278;2023-03-12T04:00:35;15.20;68.20
51863;DHT22;37900;52.996;6.278;2023-03-12T04:03:01;15.20;68.20
51863;DHT22;37900;52.996;6.278;2023-03-12T04:05:27;15.10;68.10
51863;DHT22;37900;52.996;6.278;2023-03-12T04:07:53;15.10;68.00
51863;DHT22;37900;52.996;6.278;2023-03-12T04:10:20;15.10;67.90
51863;DHT22;37900;52.996;6.278;2023-03-12T04:12:46;15.10;67.80
51863;DHT22;37900;52.996;6.278;2023-03-12T04:15:12;15.10;67.70
51863;DHT22;37900;52.996;6.278;2023-03-12T04:17:37;15.10;67.70
51863;DHT22;37900;52.996;6.278;2023-03-12T04:20:03;15.20;67.70
51863;DHT22;37900;52.996;6.278;2023-03-12T04:22:32;15.20;67.70
51863;DHT22;37900;52.996;6.278;2023-03-12T04:24:58;15.20;67.70
51863;DHT22;37900;52.996;6.278;2023-03-12T04:27:23;15.20;67.80
51863;DHT22;37900;52.996;6.278;2023-03-12T04:29:49;15.20;67.80
51863;DHT22;37900;52.996;6.278;2023-03-12T04:32:15;15.20;67.90
51863;DHT22;37900;52.996;6.278;2023-03-12T04:34:40;15.20;67.90
51863;DHT22;37900;52.996;6.278;2023-03-12T04:37:07;15.20;67.90
51863;DHT22;37900;52.996;6.278;2023-03-12T04:39:33;15.10;67.80
51863;DHT22;37900;52.996;6.278;2023-03-12T04:41:59;15.10;67.80
51863;DHT22;37900;52.996;6.278;2023-03-12T04:44:24;15.10;67.80
51863;DHT22;37900;52.996;6.278;2023-03-12T04:46:50;15.10;67.70
51863;DHT22;37900;52.996;6.278;2023-03-12T04:49:16;15.10;67.60
51863;DHT22;37900;52.996;6.278;2023-03-12T04:51:42;15.10;67.50
51863;DHT22;37900;52.996;6.278;2023-03-12T04:54:07;15.10;67.40
51863;DHT22;37900;52.996;6.278;2023-03-12T04:56:33;15.10;67.40
51863;DHT22;37900;52.996;6.278;2023-03-12T04:58:59;15.10;68.00
51863;DHT22;37900;52.996;6.278;2023-03-12T05:01:27;15.10;67.30
51863;DHT22;37900;52.996;6.278;2023-03-12T05:03:53;15.10;67.40
51863;DHT22;37900;52.996;6.278;2023-03-12T05:06:20;15.10;67.40
51863;DHT22;37900;52.996;6.278;2023-03-12T05:08:47;15.10;67.50
51863;DHT22;37900;52.996;6.278;2023-03-12T05:11:13;15.10;67.50
51863;DHT22;37900;52.996;6.278;2023-03-12T05:13:39;15.10;67.50
51863;DHT22;37900;52.996;6.278;2023-03-12T05:16:06;15.10;67.60
51863;DHT22;37900;52.996;6.278;2023-03-12T05:18:32;15.10;67.50
51863;DHT22;37900;52.996;6.278;2023-03-12T05:21:02;15.10;67.50
51863;DHT22;37900;52.996;6.278;2023-03-12T05:23:29;15.00;67.50
51863;DHT22;37900;52.996;6.278;2023-03-12T05:25:55;15.00;67.40
51863;DHT22;37900;52.996;6.278;2023-03-12T05:28:21;15.00;67.30
51863;DHT22;37900;52.996;6.278;2023-03-12T05:30:56;15.00;67.20
51863;DHT22;37900;52.996;6.278;2023-03-12T05:33:23;15.10;67.20
51863;DHT22;37900;52.996;6.278;2023-03-12T05:35:49;15.10;67.20
51863;DHT22;37900;52.996;6.278;2023-03-12T05:38:14;15.10;67.10
51863;DHT22;37900;52.996;6.278;2023-03-12T05:40:40;15.10;67.10
51863;DHT22;37900;52.996;6.278;2023-03-12T05:43:06;15.10;67.10
51863;DHT22;37900;52.996;6.278;2023-03-12T05:45:32;15.10;67.10
51863;DHT22;37900;52.996;6.278;2023-03-12T05:47:58;15.10;67.20
51863;DHT22;37900;52.996;6.278;2023-03-12T05:50:24;15.00;67.20
51863;DHT22;37900;52.996;6.278;2023-03-12T05:52:50;15.10;67.30
51863;DHT22;37900;52.996;6.278;2023-03-12T05:55:17;15.00;67.20
51863;DHT22;37900;52.996;6.278;2023-03-12T05:57:42;15.00;67.20
51863;DHT22;37900;52.996;6.278;2023-03-12T06:00:11;15.00;67.20
51863;DHT22;37900;52.996;6.278;2023-03-12T06:02:37;15.00;67.20
51863;DHT22;37900;52.996;6.278;2023-03-12T06:05:03;15.00;67.10
51863;DHT22;37900;52.996;6.278;2023-03-12T06:07:29;15.00;66.90
51863;DHT22;37900;52.996;6.278;2023-03-12T06:09:55;15.00;67.00
51863;DHT22;37900;52.996;6.278;2023-03-12T06:12:20;15.00;66.90
51863;DHT22;37900;52.996;6.278;2023-03-12T06:14:46;15.00;66.80
51863;DHT22;37900;52.996;6.278;2023-03-12T06:17:12;15.00;66.80
51863;DHT22;37900;52.996;6.278;2023-03-12T06:19:38;15.00;66.80
51863;DHT22;37900;52.996;6.278;2023-03-12T06:22:03;15.00;66.90
51863;DHT22;37900;52.996;6.278;2023-03-12T06:24:29;15.10;66.90
51863;DHT22;37900;52.996;6.278;2023-03-12T06:26:55;15.10;67.00
51863;DHT22;37900;52.996;6.278;2023-03-12T06:29:20;15.00;67.00
51863;DHT22;37900;52.996;6.278;2023-03-12T06:31:46;15.00;66.90
51863;DHT22;37900;52.996;6.278;2023-03-12T06:34:13;15.00;67.00
51863;DHT22;37900;52.996;6.278;2023-03-12T06:36:41;15.00;67.00
51863;DHT22;37900;52.996;6.278;2023-03-12T06:39:06;15.00;67.00
51863;DHT22;37900;52.996;6.278;2023-03-12T06:41:34;15.00;66.90
51863;DHT22;37900;52.996;6.278;2023-03-12T06:44:00;15.00;66.90
51863;DHT22;37900;52.996;6.278;2023-03-12T06:46:28;14.90;66.70
51863;DHT22;37900;52.996;6.278;2023-03-12T06:48:53;15.00;66.70
51863;DHT22;37900;52.996;6.278;2023-03-12T06:51:19;15.00;66.70
51863;DHT22;37900;52.996;6.278;2023-03-12T06:53:45;15.00;66.70
51863;DHT22;37900;52.996;6.278;2023-03-12T06:56:11;15.00;66.60
51863;DHT22;37900;52.996;6.278;2023-03-12T06:58:37;15.00;66.60
51863;DHT22;37900;52.996;6.278;2023-03-12T07:01:04;15.00;66.70
51863;DHT22;37900;52.996;6.278;2023-03-12T07:03:30;15.00;66.70
51863;DHT22;37900;52.996;6.278;2023-03-12T07:05:56;15.00;66.70
51863;DHT22;37900;52.996;6.278;2023-03-12T07:08:23;15.00;66.80
51863;DHT22;37900;52.996;6.278;2023-03-12T07:10:49;15.00;66.80
51863;DHT22;37900;52.996;6.278;2023-03-12T07:13:14;15.00;66.80
51863;DHT22;37900;52.996;6.278;2023-03-12T07:15:40;15.00;66.90
51863;DHT22;37900;52.996;6.278;2023-03-12T07:18:08;15.00;66.90
51863;DHT22;37900;52.996;6.278;2023-03-12T07:20:39;15.00;66.80
51863;DHT22;37900;52.996;6.278;2023-03-12T07:23:06;15.00;66.70
51863;DHT22;37900;52.996;6.278;2023-03-12T07:25:35;14.90;66.60
51863;DHT22;37900;52.996;6.278;2023-03-12T07:28:02;14.90;66.60
51863;DHT22;37900;52.996;6.278;2023-03-12T07:30:28;14.90;66.50
51863;DHT22;37900;52.996;6.278;2023-03-12T07:33:08;15.00;66.60
51863;DHT22;37900;52.996;6.278;2023-03-12T07:35:35;15.00;66.60
51863;DHT22;37900;52.996;6.278;2023-03-12T07:38:03;15.00;66.50
51863;DHT22;37900;52.996;6.278;2023-03-12T07:40:29;15.00;66.50
51863;DHT22;37900;52.996;6.278;2023-03-12T07:42:55;15.10;66.60
51863;DHT22;37900;52.996;6.278;2023-03-12T07:45:22;15.00;66.60
51863;DHT22;37900;52.996;6.278;2023-03-12T07:47:48;15.00;66.60
51863;DHT22;37900;52.996;6.278;2023-03-12T07:50:15;15.00;66.70
51863;DHT22;37900;52.996;6.278;2023-03-12T07:52:41;15.00;66.70
51863;DHT22;37900;52.996;6.278;2023-03-12T07:55:08;14.90;67.10
51863;DHT22;37900;52.996;6.278;2023-03-12T07:57:34;14.90;66.70
51863;DHT22;37900;52.996;6.278;2023-03-12T07:59:59;14.90;66.70
51863;DHT22;37900;52.996;6.278;2023-03-12T08:02:25;14.90;66.50
51863;DHT22;37900;52.996;6.278;2023-03-12T08:04:51;14.90;66.40
51863;DHT22;37900;52.996;6.278;2023-03-12T08:07:17;14.90;66.40
51863;DHT22;37900;52.996;6.278;2023-03-12T08:09:42;14.90;66.50
51863;DHT22;37900;52.996;6.278;2023-03-12T08:12:08;14.90;66.40
51863;DHT22;37900;52.996;6.278;2023-03-12T08:14:34;15.00;66.30
51863;DHT22;37900;52.996;6.278;2023-03-12T08:17:00;15.00;66.30
51863;DHT22;37900;52.996;6.278;2023-03-12T08:19:26;15.00;66.40
51863;DHT22;37900;52.996;6.278;2023-03-12T08:21:53;15.00;66.40
51863;DHT22;37900;52.996;6.278;2023-03-12T08:24:19;15.00;66.40
51863;DHT22;37900;52.996;6.278;2023-03-12T08:26:46;14.90;66.40
51863;DHT22;37900;52.996;6.278;2023-03-12T08:29:12;14.90;66.40
51863;DHT22;37900;52.996;6.278;2023-03-12T08:31:37;14.90;66.50
51863;DHT22;37900;52.996;6.278;2023-03-12T08:34:03;14.90;66.60
51863;DHT22;37900;52.996;6.278;2023-03-12T08:36:29;14.90;66.60
51863;DHT22;37900;52.996;6.278;2023-03-12T08:38:55;14.90;66.70
51863;DHT22;37900;52.996;6.278;2023-03-12T08:41:20;14.90;67.30
51863;DHT22;37900;52.996;6.278;2023-03-12T08:43:46;14.90;66.80
51863;DHT22;37900;52.996;6.278;2023-03-12T08:46:12;14.90;67.00
51863;DHT22;37900;52.996;6.278;2023-03-12T08:48:38;14.90;67.30
51863;DHT22;37900;52.996;6.278;2023-03-12T08:51:05;14.90;67.80
51863;DHT22;37900;52.996;6.278;2023-03-12T08:53:33;15.00;68.10
51863;DHT22;37900;52.996;6.278;2023-03-12T08:56:00;15.00;68.20
51863;DHT22;37900;52.996;6.278;2023-03-12T08:58:27;15.00;68.30
51863;DHT22;37900;52.996;6.278;2023-03-12T09:00:54;15.00;68.30
51863;DHT22;37900;52.996;6.278;2023-03-12T09:03:21;15.00;68.30
51863;DHT22;37900;52.996;6.278;2023-03-12T09:05:48;15.00;68.50
51863;DHT22;37900;52.996;6.278;2023-03-12T09:08:14;15.00;68.30
51863;DHT22;37900;52.996;6.278;2023-03-12T09:10:40;15.00;68.30
51863;DHT22;37900;52.996;6.278;2023-03-12T09:13:06;15.00;68.40
51863;DHT22;37900;52.996;6.278;2023-03-12T09:15:32;14.90;68.30
51863;DHT22;37900;52.996;6.278;2023-03-12T09:17:58;14.90;68.30
51863;DHT22;37900;52.996;6.278;2023-03-12T09:20:24;14.90;68.30
51863;DHT22;37900;52.996;6.278;2023-03-12T09:22:50;14.90;68.30
51863;DHT22;37900;52.996;6.278;2023-03-12T09:25:16;14.90;68.20
51863;DHT22;37900;52.996;6.278;2023-03-12T09:27:44;14.90;68.30
51863;DHT22;37900;52.996;6.278;2023-03-12T09:30:15;14.90;68.20
51863;DHT22;37900;52.996;6.278;2023-03-12T09:32:42;14.90;68.20
51863;DHT22;37900;52.996;6.278;2023-03-12T09:35:11;14.90;68.10
51863;DHT22;37900;52.996;6.278;2023-03-12T09:37:37;15.00;68.10
51863;DHT22;37900;52.996;6.278;2023-03-12T09:40:03;15.00;68.10
51863;DHT22;37900;52.996;6.278;2023-03-12T09:42:37;15.00;68.10
51863;DHT22;37900;52.996;6.278;2023-03-12T09:45:06;15.00;68.10
51863;DHT22;37900;52.996;6.278;2023-03-12T09:47:45;14.90;68.00
51863;DHT22;37900;52.996;6.278;2023-03-12T09:50:28;14.90;68.00
51863;DHT22;37900;52.996;6.278;2023-03-12T09:53:36;14.90;68.00
51863;DHT22;37900;52.996;6.278;2023-03-12T09:55:56;14.90;68.10
51863;DHT22;37900;52.996;6.278;2023-03-12T09:58:36;14.90;68.10
51863;DHT22;37900;52.996;6.278;2023-03-12T10:04:14;14.80;68.00
51863;DHT22;37900;52.996;6.278;2023-03-12T10:26:09;14.90;68.10
51863;DHT22;37900;52.996;6.278;2023-03-12T10:28:40;14.90;68.20
51863;DHT22;37900;52.996;6.278;2023-03-12T10:31:23;14.90;68.30
51863;DHT22;37900;52.996;6.278;2023-03-12T10:33:56;14.90;68.30
51863;DHT22;37900;52.996;6.278;2023-03-12T10:36:27;14.90;68.40
51863;DHT22;37900;52.996;6.278;2023-03-12T10:38:54;14.80;68.30
51863;DHT22;37900;52.996;6.278;2023-03-12T10:41:27;14.80;68.40
51863;DHT22;37900;52.996;6.278;2023-03-12T10:43:54;14.80;68.30
51863;DHT22;37900;52.996;6.278;2023-03-12T10:46:45;14.80;68.30
51863;DHT22;37900;52.996;6.278;2023-03-12T10:49:24;14.90;68.40
51863;DHT22;37900;52.996;6.278;2023-03-12T10:51:58;14.90;68.50
51863;DHT22;37900;52.996;6.278;2023-03-12T10:54:31;14.90;68.50
51863;DHT22;37900;52.996;6.278;2023-03-12T10:56:58;14.90;68.50
51863;DHT22;37900;52.996;6.278;2023-03-12T10:59:30;14.90;68.50
51863;DHT22;37900;52.996;6.278;2023-03-12T11:01:56;14.90;68.50
51863;DHT22;37900;52.996;6.278;2023-03-12T11:04:31;14.90;68.60
51863;DHT22;37900;52.996;6.278;2023-03-12T11:07:14;14.90;68.70
51863;DHT22;37900;52.996;6.278;2023-03-12T11:09:40;14.90;68.70
51863;DHT22;37900;52.996;6.278;2023-03-12T11:12:26;14.90;68.80
51863;DHT22;37900;52.996;6.278;2023-03-12T11:14:52;14.90;68.90
51863;DHT22;37900;52.996;6.278;2023-03-12T11:17:21;14.80;68.90
51863;DHT22;37900;52.996;6.278;2023-03-12T11:19:48;14.80;69.00
51863;DHT22;37900;52.996;6.278;2023-03-12T11:22:13;14.80;69.00
51863;DHT22;37900;52.996;6.278;2023-03-12T11:25:00;14.80;69.10
51863;DHT22;37900;52.996;6.278;2023-03-12T11:27:40;14.90;69.10
51863;DHT22;37900;52.996;6.278;2023-03-12T11:30:11;14.90;69.10
51863;DHT22;37900;52.996;6.278;2023-03-12T11:32:45;14.90;69.20
51863;DHT22;37900;52.996;6.278;2023-03-12T11:35:14;14.90;69.20
51863;DHT22;37900;52.996;6.278;2023-03-12T11:37:47;15.00;69.20
51863;DHT22;37900;52.996;6.278;2023-03-12T11:40:43;15.00;69.30
51863;DHT22;37900;52.996;6.278;2023-03-12T11:43:22;15.00;69.40
51863;DHT22;37900;52.996;6.278;2023-03-12T11:46:11;15.00;69.30
51863;DHT22;37900;52.996;6.278;2023-03-12T11:52:16;15.10;69.40
51863;DHT22;37900;52.996;6.278;2023-03-12T12:00:55;15.20;69.40
51863;DHT22;37900;52.996;6.278;2023-03-12T12:09:48;15.20;69.50
51863;DHT22;37900;52.996;6.278;2023-03-12T12:15:01;15.30;69.70
51863;DHT22;37900;52.996;6.278;2023-03-12T12:17:37;15.30;69.80
51863;DHT22;37900;52.996;6.278;2023-03-12T12:21:39;15.30;69.80
51863;DHT22;37900;52.996;6.278;2023-03-12T12:23:53;15.30;70.00
51863;DHT22;37900;52.996;6.278;2023-03-12T12:29:54;15.40;70.00
51863;DHT22;37900;52.996;6.278;2023-03-12T12:32:21;15.40;70.00
51863;DHT22;37900;52.996;6.278;2023-03-12T12:34:55;15.40;70.00
51863;DHT22;37900;52.996;6.278;2023-03-12T12:37:29;15.40;70.10
51863;DHT22;37900;52.996;6.278;2023-03-12T12:40:24;15.50;70.20
51863;DHT22;37900;52.996;6.278;2023-03-12T12:43:19;15.50;70.30
51863;DHT22;37900;52.996;6.278;2023-03-12T12:45:47;15.50;70.40
51863;DHT22;37900;52.996;6.278;2023-03-12T12:48:19;15.50;70.40
51863;DHT22;37900;52.996;6.278;2023-03-12T12:50:46;15.50;70.40
51863;DHT22;37900;52.996;6.278;2023-03-12T12:53:23;15.50;70.40
51863;DHT22;37900;52.996;6.278;2023-03-12T12:58:20;15.50;70.50
51863;DHT22;37900;52.996;6.278;2023-03-12T13:00:54;15.60;70.60
51863;DHT22;37900;52.996;6.278;2023-03-12T13:03:23;15.60;70.50
51863;DHT22;37900;52.996;6.278;2023-03-12T13:06:01;15.60;70.50
51863;DHT22;37900;52.996;6.278;2023-03-12T13:22:53;15.70;70.70
51863;DHT22;37900;52.996;6.278;2023-03-12T13:24:56;15.70;70.70
51863;DHT22;37900;52.996;6.278;2023-03-12T13:27:29;15.70;70.70
51863;DHT22;37900;52.996;6.278;2023-03-12T13:29:55;15.70;70.70
51863;DHT22;37900;52.996;6.278;2023-03-12T13:35:06;15.70;70.60
51863;DHT22;37900;52.996;6.278;2023-03-12T13:43:10;15.80;70.60
51863;DHT22;37900;52.996;6.278;2023-03-12T13:46:05;15.80;70.60
51863;DHT22;37900;52.996;6.278;2023-03-12T13:48:33;15.80;70.50
51863;DHT22;37900;52.996;6.278;2023-03-12T13:51:10;15.80;70.50
51863;DHT22;37900;52.996;6.278;2023-03-12T13:53:37;15.80;70.40
51863;DHT22;37900;52.996;6.278;2023-03-12T13:56:11;15.80;70.40
51863;DHT22;37900;52.996;6.278;2023-03-12T13:58:48;15.80;70.40
51863;DHT22;37900;52.996;6.278;2023-03-12T14:01:17;15.80;70.40
51863;DHT22;37900;52.996;6.278;2023-03-12T14:04:34;15.80;70.40
51863;DHT22;37900;52.996;6.278;2023-03-12T14:07:12;15.80;70.40
51863;DHT22;37900;52.996;6.278;2023-03-12T14:15:48;15.90;70.40
51863;DHT22;37900;52.996;6.278;2023-03-12T14:18:24;15.90;70.30
51863;DHT22;37900;52.996;6.278;2023-03-12T14:21:03;15.90;70.30
51863;DHT22;37900;52.996;6.278;2023-03-12T14:23:38;15.90;70.30
51863;DHT22;37900;52.996;6.278;2023-03-12T14:26:05;15.90;70.30
51863;DHT22;37900;52.996;6.278;2023-03-12T14:28:39;16.00;70.40
51863;DHT22;37900;52.996;6.278;2023-03-12T14:31:13;16.00;70.30
51863;DHT22;37900;52.996;6.278;2023-03-12T14:36:39;16.00;70.30
51863;DHT22;37900;52.996;6.278;2023-03-12T14:39:34;16.00;70.30
51863;DHT22;37900;52.996;6.278;2023-03-12T14:42:03;16.00;70.20
51863;DHT22;37900;52.996;6.278;2023-03-12T14:44:31;16.00;70.20
51863;DHT22;37900;52.996;6.278;2023-03-12T14:47:00;16.10;70.30
51863;DHT22;37900;52.996;6.278;2023-03-12T14:49:28;16.10;70.30
51863;DHT22;37900;52.996;6.278;2023-03-12T14:51:54;16.10;70.30
51863;DHT22;37900;52.996;6.278;2023-03-12T14:54:23;16.10;70.30
51863;DHT22;37900;52.996;6.278;2023-03-12T14:56:50;16.10;70.20
51863;DHT22;37900;52.996;6.278;2023-03-12T14:59:28;16.10;70.20
51863;DHT22;37900;52.996;6.278;2023-03-12T15:01:55;16.10;70.20
51863;DHT22;37900;52.996;6.278;2023-03-12T15:04:23;16.10;70.20
51863;DHT22;37900;52.996;6.278;2023-03-12T15:06:52;16.10;70.30
51863;DHT22;37900;52.996;6.278;2023-03-12T15:09:22;16.10;70.30
51863;DHT22;37900;52.996;6.278;2023-03-12T15:12:38;16.10;70.20
51863;DHT22;37900;52.996;6.278;2023-03-12T15:14:40;16.20;70.30
51863;DHT22;37900;52.996;6.278;2023-03-12T15:17:07;16.20;70.20
51863;DHT22;37900;52.996;6.278;2023-03-12T15:19:35;16.20;70.20
51863;DHT22;37900;52.996;6.278;2023-03-12T15:22:04;16.20;70.20
51863;DHT22;37900;52.996;6.278;2023-03-12T15:24:37;16.20;70.20
51863;DHT22;37900;52.996;6.278;2023-03-12T15:29:54;16.20;70.10
51863;DHT22;37900;52.996;6.278;2023-03-12T15:32:22;16.20;70.20
51863;DHT22;37900;52.996;6.278;2023-03-12T15:34:53;16.20;70.20
51863;DHT22;37900;52.996;6.278;2023-03-12T15:39:50;16.20;70.10
51863;DHT22;37900;52.996;6.278;2023-03-12T15:42:18;16.10;70.10
51863;DHT22;37900;52.996;6.278;2023-03-12T15:44:55;16.10;70.10
51863;DHT22;37900;52.996;6.278;2023-03-12T15:47:27;16.10;70.10
51863;DHT22;37900;52.996;6.278;2023-03-12T15:49:56;16.00;70.10
51863;DHT22;37900;52.996;6.278;2023-03-12T15:52:29;16.00;70.20
51863;DHT22;37900;52.996;6.278;2023-03-12T15:55:06;16.00;70.20
51863;DHT22;37900;52.996;6.278;2023-03-12T16:02:46;16.10;70.30
51863;DHT22;37900;52.996;6.278;2023-03-12T16:05:12;16.10;70.20
51863;DHT22;37900;52.996;6.278;2023-03-12T16:07:38;16.10;70.20
51863;DHT22;37900;52.996;6.278;2023-03-12T16:10:04;16.10;70.20
51863;DHT22;37900;52.996;6.278;2023-03-12T16:12:31;16.20;70.30
51863;DHT22;37900;52.996;6.278;2023-03-12T16:14:57;16.20;70.20
51863;DHT22;37900;52.996;6.278;2023-03-12T16:17:23;16.20;70.20
51863;DHT22;37900;52.996;6.278;2023-03-12T16:19:49;16.20;70.20
51863;DHT22;37900;52.996;6.278;2023-03-12T16:22:14;16.20;70.20
51863;DHT22;37900;52.996;6.278;2023-03-12T16:24:42;16.30;70.20
51863;DHT22;37900;52.996;6.278;2023-03-12T16:27:12;16.30;70.30
51863;DHT22;37900;52.996;6.278;2023-03-12T16:29:39;16.30;70.20
51863;DHT22;37900;52.996;6.278;2023-03-12T16:32:13;16.30;70.20
51863;DHT22;37900;52.996;6.278;2023-03-12T16:34:39;16.30;70.20
51863;DHT22;37900;52.996;6.278;2023-03-12T16:37:08;16.20;70.20
51863;DHT22;37900;52.996;6.278;2023-03-12T16:39:34;16.20;70.20
51863;DHT22;37900;52.996;6.278;2023-03-12T16:42:00;16.20;70.30
51863;DHT22;37900;52.996;6.278;2023-03-12T16:44:29;16.20;70.30
51863;DHT22;37900;52.996;6.278;2023-03-12T16:46:56;16.10;70.40
51863;DHT22;37900;52.996;6.278;2023-03-12T16:49:22;16.10;70.40
51863;DHT22;37900;52.996;6.278;2023-03-12T16:51:48;16.10;70.50
51863;DHT22;37900;52.996;6.278;2023-03-12T16:54:14;16.10;70.60
51863;DHT22;37900;52.996;6.278;2023-03-12T16:56:42;16.10;70.60
51863;DHT22;37900;52.996;6.278;2023-03-12T16:59:24;16.20;70.80
51863;DHT22;37900;52.996;6.278;2023-03-12T17:01:51;16.20;70.80
51863;DHT22;37900;52.996;6.278;2023-03-12T17:04:17;16.20;70.80
51863;DHT22;37900;52.996;6.278;2023-03-12T17:06:43;16.20;70.90
51863;DHT22;37900;52.996;6.278;2023-03-12T17:09:08;16.20;70.90
51863;DHT22;37900;52.996;6.278;2023-03-12T17:11:35;16.30;71.00
51863;DHT22;37900;52.996;6.278;2023-03-12T17:14:19;16.30;71.00